sensor_id;sensor_type;location;lat;lon;timestamp;pressure;altitude;pressure_sealevel;temperature;humidity
41947;BME280;27638;42.184;24.848;2022-10-16T00:01:21;100562.81;;;11.32;83.04
41947;BME280;27638;42.184;24.848;2022-10-16T00:03:48;100568.97;;;11.33;83.09
41947;BME280;27638;42.184;24.848;2022-10-16T00:06:15;100562.63;;;11.43;82.16
41947;BME280;27638;42.184;24.848;2022-10-16T00:08:41;100583.88;;;11.71;82.12
41947;BME280;27638;42.184;24.848;2022-10-16T00:11:11;100579.75;;;11.86;81.31
41947;BME280;27638;42.184;24.848;2022-10-16T00:13:38;100565.13;;;12.00;80.22
41947;BME280;27638;42.184;24.848;2022-10-16T00:16:04;100586.13;;;12.29;79.22
41947;BME280;27638;42.184;24.848;2022-10-16T00:18:30;100564.88;;;12.29;78.57
41947;BME280;27638;42.184;24.848;2022-10-16T00:21:02;100582.09;;;12.42;78.28
41947;BME280;27638;42.184;24.848;2022-10-16T00:23:28;100583.63;;;12.45;78.51
41947;BME280;27638;42.184;24.848;2022-10-16T00:25:57;100576.41;;;12.55;77.88
41947;BME280;27638;42.184;24.848;2022-10-16T00:28:23;100579.97;;;12.64;77.60
41947;BME280;27638;42.184;24.848;2022-10-16T00:30:48;100571.78;;;12.57;76.95
41947;BME280;27638;42.184;24.848;2022-10-16T00:33:14;100585.06;;;12.57;77.31
41947;BME280;27638;42.184;24.848;2022-10-16T00:35:45;100590.38;;;12.57;76.41
41947;BME280;27638;42.184;24.848;2022-10-16T00:38:29;100585.06;;;12.39;76.90
41947;BME280;27638;42.184;24.848;2022-10-16T00:40:54;100589.47;;;12.31;77.44
41947;BME280;27638;42.184;24.848;2022-10-16T00:43:38;100587.34;;;12.34;77.96
41947;BME280;27638;42.184;24.848;2022-10-16T00:46:09;100566.56;;;12.12;77.12
41947;BME280;27638;42.184;24.848;2022-10-16T00:48:36;100596.06;;;12.09;77.54
41947;BME280;27638;42.184;24.848;2022-10-16T00:51:02;100544.81;;;11.63;78.16
41947;BME280;27638;42.184;24.848;2022-10-16T00:53:30;100592.06;;;12.05;78.19
41947;BME280;27638;42.184;24.848;2022-10-16T00:55:55;100607.59;;;12.18;77.71
41947;BME280;27638;42.184;24.848;2022-10-16T00:58:21;100600.78;;;12.15;77.85
41947;BME280;27638;42.184;24.848;2022-10-16T01:00:46;100613.22;;;12.32;77.49
41947;BME280;27638;42.184;24.848;2022-10-16T01:03:30;100616.63;;;12.42;77.07
41947;BME280;27638;42.184;24.848;2022-10-16T01:08:49;100623.56;;;12.53;75.98
41947;BME280;27638;42.184;24.848;2022-10-16T01:11:27;100623.63;;;12.61;75.31
41947;BME280;27638;42.184;24.848;2022-10-16T01:14:02;100618.78;;;12.57;75.06
41947;BME280;27638;42.184;24.848;2022-10-16T01:16:35;100633.34;;;12.53;76.04
41947;BME280;27638;42.184;24.848;2022-10-16T01:19:05;100641.00;;;12.38;76.62
41947;BME280;27638;42.184;24.848;2022-10-16T01:21:43;100634.69;;;12.39;76.56
41947;BME280;27638;42.184;24.848;2022-10-16T01:24:33;100635.75;;;12.46;76.79
41947;BME280;27638;42.184;24.848;2022-10-16T01:34:51;100640.63;;;12.68;75.16
41947;BME280;27638;42.184;24.848;2022-10-16T01:37:25;100634.94;;;12.63;75.15
41947;BME280;27638;42.184;24.848;2022-10-16T01:39:55;100644.13;;;12.69;74.53
41947;BME280;27638;42.184;24.848;2022-10-16T01:42:29;100639.84;;;12.76;74.92
41947;BME280;27638;42.184;24.848;2022-10-16T01:44:57;100639.41;;;12.63;74.42
41947;BME280;27638;42.184;24.848;2022-10-16T01:47:25;100642.97;;;12.71;74.45
41947;BME280;27638;42.184;24.848;2022-10-16T01:49:52;100648.59;;;12.68;74.83
41947;BME280;27638;42.184;24.848;2022-10-16T01:52:22;100631.69;;;12.52;75.60
41947;BME280;27638;42.184;24.848;2022-10-16T01:54:51;100618.16;;;12.45;75.08
41947;BME280;27638;42.184;24.848;2022-10-16T01:57:18;100654.59;;;12.70;75.28
41947;BME280;27638;42.184;24.848;2022-10-16T01:59:47;100652.31;;;12.75;75.32
41947;BME280;27638;42.184;24.848;2022-10-16T02:02:15;100653.28;;;12.74;75.30
41947;BME280;27638;42.184;24.848;2022-10-16T02:04:48;100656.19;;;12.63;75.64
41947;BME280;27638;42.184;24.848;2022-10-16T02:07:15;100642.66;;;12.39;75.50
41947;BME280;27638;42.184;24.848;2022-10-16T02:09:41;100652.16;;;12.41;75.71
41947;BME280;27638;42.184;24.848;2022-10-16T02:12:15;100654.56;;;12.17;76.95
41947;BME280;27638;42.184;24.848;2022-10-16T02:14:44;100644.31;;;12.22;75.64
41947;BME280;27638;42.184;24.848;2022-10-16T02:17:14;100629.34;;;11.76;76.44
41947;BME280;27638;42.184;24.848;2022-10-16T02:19:41;100648.16;;;11.92;76.00
41947;BME280;27638;42.184;24.848;2022-10-16T02:22:10;100663.00;;;11.85;76.32
41947;BME280;27638;42.184;24.848;2022-10-16T02:24:57;100660.19;;;11.87;76.59
41947;BME280;27638;42.184;24.848;2022-10-16T02:27:38;100647.22;;;11.83;76.59
41947;BME280;27638;42.184;24.848;2022-10-16T02:32:52;100652.63;;;11.92;75.23
41947;BME280;27638;42.184;24.848;2022-10-16T02:35:20;100659.84;;;11.99;75.89
41947;BME280;27638;42.184;24.848;2022-10-16T02:38:23;100664.63;;;11.96;76.43
41947;BME280;27638;42.184;24.848;2022-10-16T02:40:49;100665.34;;;11.88;76.19
41947;BME280;27638;42.184;24.848;2022-10-16T02:43:16;100665.75;;;11.93;76.11
41947;BME280;27638;42.184;24.848;2022-10-16T02:45:41;100669.44;;;11.73;77.41
41947;BME280;27638;42.184;24.848;2022-10-16T02:48:07;100672.09;;;11.73;77.43
41947;BME280;27638;42.184;24.848;2022-10-16T02:50:32;100676.38;;;11.93;76.13
41947;BME280;27638;42.184;24.848;2022-10-16T02:52:58;100685.06;;;11.76;77.36
41947;BME280;27638;42.184;24.848;2022-10-16T02:55:23;100687.34;;;11.71;78.28
41947;BME280;27638;42.184;24.848;2022-10-16T02:57:49;100684.81;;;11.69;77.06
41947;BME280;27638;42.184;24.848;2022-10-16T03:00:16;100694.06;;;11.65;77.45
41947;BME280;27638;42.184;24.848;2022-10-16T03:02:42;100697.00;;;11.62;77.73
41947;BME280;27638;42.184;24.848;2022-10-16T03:05:09;100702.91;;;11.56;77.33
41947;BME280;27638;42.184;24.848;2022-10-16T03:07:34;100694.25;;;11.54;77.23
41947;BME280;27638;42.184;24.848;2022-10-16T03:10:00;100698.41;;;11.57;76.90
41947;BME280;27638;42.184;24.848;2022-10-16T03:12:27;100659.50;;;11.47;76.77
41947;BME280;27638;42.184;24.848;2022-10-16T03:14:52;100692.16;;;11.48;77.44
41947;BME280;27638;42.184;24.848;2022-10-16T03:17:18;100693.41;;;11.44;77.63
41947;BME280;27638;42.184;24.848;2022-10-16T03:19:43;100699.59;;;11.44;77.64
41947;BME280;27638;42.184;24.848;2022-10-16T03:22:09;100693.31;;;11.26;78.00
41947;BME280;27638;42.184;24.848;2022-10-16T03:25:11;100717.72;;;11.49;77.38
41947;BME280;27638;42.184;24.848;2022-10-16T03:27:37;100716.31;;;11.35;77.66
41947;BME280;27638;42.184;24.848;2022-10-16T03:33:27;100713.25;;;11.49;76.14
41947;BME280;27638;42.184;24.848;2022-10-16T03:35:53;100716.31;;;11.35;76.70
41947;BME280;27638;42.184;24.848;2022-10-16T03:38:19;100692.94;;;11.11;77.93
41947;BME280;27638;42.184;24.848;2022-10-16T03:40:45;100718.19;;;11.15;77.84
41947;BME280;27638;42.184;24.848;2022-10-16T03:43:10;100718.91;;;10.98;77.82
41947;BME280;27638;42.184;24.848;2022-10-16T03:45:36;100710.53;;;11.03;78.04
41947;BME280;27638;42.184;24.848;2022-10-16T03:48:01;100722.78;;;11.13;77.80
41947;BME280;27638;42.184;24.848;2022-10-16T03:50:28;100726.00;;;11.17;77.07
41947;BME280;27638;42.184;24.848;2022-10-16T03:52:54;100721.94;;;11.23;76.94
41947;BME280;27638;42.184;24.848;2022-10-16T03:55:21;100737.69;;;11.34;77.05
41947;BME280;27638;42.184;24.848;2022-10-16T03:57:46;100730.03;;;11.11;77.35
41947;BME280;27638;42.184;24.848;2022-10-16T04:00:12;100733.94;;;11.17;77.32
41947;BME280;27638;42.184;24.848;2022-10-16T04:02:38;100732.28;;;11.16;76.66
41947;BME280;27638;42.184;24.848;2022-10-16T04:05:04;100731.03;;;11.01;77.79
41947;BME280;27638;42.184;24.848;2022-10-16T04:07:30;100737.84;;;11.13;77.05
41947;BME280;27638;42.184;24.848;2022-10-16T04:09:55;100734.91;;;11.16;77.63
41947;BME280;27638;42.184;24.848;2022-10-16T04:12:22;100723.88;;;11.20;77.20
41947;BME280;27638;42.184;24.848;2022-10-16T04:14:47;100737.56;;;11.26;76.67
41947;BME280;27638;42.184;24.848;2022-10-16T04:17:13;100718.19;;;11.15;77.19
41947;BME280;27638;42.184;24.848;2022-10-16T04:19:39;100729.88;;;11.23;77.66
41947;BME280;27638;42.184;24.848;2022-10-16T04:22:04;100725.13;;;11.36;76.89
41947;BME280;27638;42.184;24.848;2022-10-16T04:24:30;100726.81;;;11.27;76.27
41947;BME280;27638;42.184;24.848;2022-10-16T04:26:55;100740.38;;;11.14;77.36
41947;BME280;27638;42.184;24.848;2022-10-16T04:29:21;100737.00;;;11.22;76.97
41947;BME280;27638;42.184;24.848;2022-10-16T04:31:47;100743.25;;;11.31;76.84
41947;BME280;27638;42.184;24.848;2022-10-16T04:34:12;100743.25;;;11.31;77.19
41947;BME280;27638;42.184;24.848;2022-10-16T04:36:38;100738.94;;;11.30;76.34
41947;BME280;27638;42.184;24.848;2022-10-16T04:39:03;100738.94;;;11.30;76.29
41947;BME280;27638;42.184;24.848;2022-10-16T04:41:29;100745.50;;;11.26;77.06
41947;BME280;27638;42.184;24.848;2022-10-16T04:43:54;100746.91;;;11.20;77.01
41947;BME280;27638;42.184;24.848;2022-10-16T04:46:20;100750.66;;;11.27;77.31
41947;BME280;27638;42.184;24.848;2022-10-16T04:48:45;100749.13;;;11.34;76.59
41947;BME280;27638;42.184;24.848;2022-10-16T04:51:12;100741.59;;;11.30;76.31
41947;BME280;27638;42.184;24.848;2022-10-16T04:53:37;100745.50;;;11.35;76.44
41947;BME280;27638;42.184;24.848;2022-10-16T04:56:03;100751.66;;;11.26;76.97
41947;BME280;27638;42.184;24.848;2022-10-16T04:58:29;100741.44;;;11.31;76.34
41947;BME280;27638;42.184;24.848;2022-10-16T05:00:54;100755.00;;;11.18;77.31
41947;BME280;27638;42.184;24.848;2022-10-16T05:03:20;100744.81;;;11.24;77.40
41947;BME280;27638;42.184;24.848;2022-10-16T05:05:46;100762.50;;;11.42;76.54
41947;BME280;27638;42.184;24.848;2022-10-16T05:08:13;100751.91;;;11.42;76.27
41947;BME280;27638;42.184;24.848;2022-10-16T05:10:43;100760.56;;;11.44;76.27
41947;BME280;27638;42.184;24.848;2022-10-16T05:13:09;100759.88;;;11.23;77.37
41947;BME280;27638;42.184;24.848;2022-10-16T05:15:35;100755.84;;;11.09;78.06
41947;BME280;27638;42.184;24.848;2022-10-16T05:18:01;100755.97;;;11.17;78.06
41947;BME280;27638;42.184;24.848;2022-10-16T05:20:27;100764.22;;;11.14;77.49
41947;BME280;27638;42.184;24.848;2022-10-16T05:22:53;100767.97;;;11.22;77.24
41947;BME280;27638;42.184;24.848;2022-10-16T05:25:18;100778.03;;;11.28;77.71
41947;BME280;27638;42.184;24.848;2022-10-16T05:27:47;100764.06;;;11.26;77.31
41947;BME280;27638;42.184;24.848;2022-10-16T05:30:14;100776.47;;;11.35;77.11
41947;BME280;27638;42.184;24.848;2022-10-16T05:32:39;100779.84;;;11.17;77.79
41947;BME280;27638;42.184;24.848;2022-10-16T05:35:05;100785.84;;;11.29;77.25
41947;BME280;27638;42.184;24.848;2022-10-16T05:37:31;100794.06;;;11.16;78.18
41947;BME280;27638;42.184;24.848;2022-10-16T05:39:56;100797.00;;;11.23;78.12
41947;BME280;27638;42.184;24.848;2022-10-16T05:42:22;100788.50;;;11.00;78.43
41947;BME280;27638;42.184;24.848;2022-10-16T05:44:47;100799.66;;;11.23;78.13
41947;BME280;27638;42.184;24.848;2022-10-16T05:47:13;100802.44;;;11.22;78.70
41947;BME280;27638;42.184;24.848;2022-10-16T05:49:39;100795.03;;;11.25;78.97
41947;BME280;27638;42.184;24.848;2022-10-16T05:52:05;100821.41;;;11.65;78.00
41947;BME280;27638;42.184;24.848;2022-10-16T05:54:30;100828.16;;;12.06;77.02
41947;BME280;27638;42.184;24.848;2022-10-16T05:56:56;100818.84;;;12.30;75.70
41947;BME280;27638;42.184;24.848;2022-10-16T05:59:21;100823.81;;;12.42;74.68
41947;BME280;27638;42.184;24.848;2022-10-16T06:01:47;100825.03;;;12.58;74.50
41947;BME280;27638;42.184;24.848;2022-10-16T06:04:12;100826.59;;;12.51;74.57
41947;BME280;27638;42.184;24.848;2022-10-16T06:06:38;100828.84;;;12.73;73.83
41947;BME280;27638;42.184;24.848;2022-10-16T06:09:04;100830.22;;;12.95;73.05
41947;BME280;27638;42.184;24.848;2022-10-16T06:11:31;100834.47;;;12.88;73.74
41947;BME280;27638;42.184;24.848;2022-10-16T06:13:59;100825.16;;;13.01;73.37
41947;BME280;27638;42.184;24.848;2022-10-16T06:16:42;100824.38;;;13.09;72.74
41947;BME280;27638;42.184;24.848;2022-10-16T06:19:07;100835.88;;;13.27;73.26
41947;BME280;27638;42.184;24.848;2022-10-16T06:21:34;100827.44;;;13.50;72.04
41947;BME280;27638;42.184;24.848;2022-10-16T06:24:00;100839.16;;;13.83;71.45
41947;BME280;27638;42.184;24.848;2022-10-16T06:26:28;100834.69;;;13.83;71.62
41947;BME280;27638;42.184;24.848;2022-10-16T06:28:55;100843.44;;;14.01;71.50
41947;BME280;27638;42.184;24.848;2022-10-16T06:31:21;100844.00;;;14.13;70.91
41947;BME280;27638;42.184;24.848;2022-10-16T06:33:50;100845.81;;;14.38;70.18
41947;BME280;27638;42.184;24.848;2022-10-16T06:36:17;100852.50;;;14.43;70.49
41947;BME280;27638;42.184;24.848;2022-10-16T06:38:43;100846.38;;;14.50;69.99
41947;BME280;27638;42.184;24.848;2022-10-16T06:41:15;100846.97;;;14.70;69.81
41947;BME280;27638;42.184;24.848;2022-10-16T06:43:41;100854.53;;;14.83;69.32
41947;BME280;27638;42.184;24.848;2022-10-16T06:46:09;100861.03;;;14.88;68.80
41947;BME280;27638;42.184;24.848;2022-10-16T06:49:11;100853.66;;;14.74;69.84
41947;BME280;27638;42.184;24.848;2022-10-16T06:51:37;100844.81;;;14.65;69.25
41947;BME280;27638;42.184;24.848;2022-10-16T06:54:06;100858.16;;;14.74;69.23
41947;BME280;27638;42.184;24.848;2022-10-16T06:56:32;100831.66;;;14.72;68.98
41947;BME280;27638;42.184;24.848;2022-10-16T06:58:58;100865.56;;;14.96;68.89
41947;BME280;27638;42.184;24.848;2022-10-16T07:04:35;100859.94;;;15.48;67.81
41947;BME280;27638;42.184;24.848;2022-10-16T07:07:01;100864.16;;;15.58;67.06
41947;BME280;27638;42.184;24.848;2022-10-16T07:09:27;100869.34;;;15.76;67.11
41947;BME280;27638;42.184;24.848;2022-10-16T07:11:52;100875.16;;;16.04;66.27
41947;BME280;27638;42.184;24.848;2022-10-16T07:14:33;100866.09;;;16.13;65.81
41947;BME280;27638;42.184;24.848;2022-10-16T07:16:59;100864.41;;;16.28;65.67
41947;BME280;27638;42.184;24.848;2022-10-16T07:19:24;100889.09;;;16.39;65.40
41947;BME280;27638;42.184;24.848;2022-10-16T07:21:50;100871.88;;;16.41;65.40
41947;BME280;27638;42.184;24.848;2022-10-16T07:24:16;100886.66;;;16.60;65.41
41947;BME280;27638;42.184;24.848;2022-10-16T07:26:43;100883.03;;;16.53;65.65
41947;BME280;27638;42.184;24.848;2022-10-16T07:29:15;100873.13;;;16.61;65.56
41947;BME280;27638;42.184;24.848;2022-10-16T07:31:42;100873.03;;;16.47;66.26
41947;BME280;27638;42.184;24.848;2022-10-16T07:34:07;100868.00;;;16.52;65.72
41947;BME280;27638;42.184;24.848;2022-10-16T07:36:33;100860.94;;;16.59;65.51
41947;BME280;27638;42.184;24.848;2022-10-16T07:38:59;100871.50;;;16.69;65.37
41947;BME280;27638;42.184;24.848;2022-10-16T07:41:25;100867.63;;;16.71;64.80
41947;BME280;27638;42.184;24.848;2022-10-16T07:43:52;100875.50;;;16.65;64.75
41947;BME280;27638;42.184;24.848;2022-10-16T07:46:19;100851.94;;;16.52;64.38
41947;BME280;27638;42.184;24.848;2022-10-16T07:48:45;100873.72;;;16.88;63.97
41947;BME280;27638;42.184;24.848;2022-10-16T07:51:14;100871.63;;;16.75;63.75
41947;BME280;27638;42.184;24.848;2022-10-16T07:53:40;100869.59;;;16.77;64.25
41947;BME280;27638;42.184;24.848;2022-10-16T07:56:06;100872.84;;;16.96;64.48
41947;BME280;27638;42.184;24.848;2022-10-16T07:58:33;100873.59;;;17.12;63.30
41947;BME280;27638;42.184;24.848;2022-10-16T08:01:07;100862.88;;;17.35;62.68
41947;BME280;27638;42.184;24.848;2022-10-16T08:03:33;100862.41;;;17.32;62.56
41947;BME280;27638;42.184;24.848;2022-10-16T08:05:59;100868.72;;;17.16;61.99
41947;BME280;27638;42.184;24.848;2022-10-16T08:08:25;100862.53;;;17.38;62.24
41947;BME280;27638;42.184;24.848;2022-10-16T08:10:50;100851.47;;;17.41;61.41
41947;BME280;27638;42.184;24.848;2022-10-16T08:13:16;100849.31;;;17.60;61.56
41947;BME280;27638;42.184;24.848;2022-10-16T08:15:45;100857.00;;;17.85;60.88
41947;BME280;27638;42.184;24.848;2022-10-16T08:18:12;100866.53;;;18.03;59.46
41947;BME280;27638;42.184;24.848;2022-10-16T08:20:39;100877.22;;;17.88;60.36
41947;BME280;27638;42.184;24.848;2022-10-16T08:23:05;100862.00;;;17.89;60.78
41947;BME280;27638;42.184;24.848;2022-10-16T08:25:31;100865.72;;;18.17;59.25
41947;BME280;27638;42.184;24.848;2022-10-16T08:27:56;100858.56;;;17.80;59.40
41947;BME280;27638;42.184;24.848;2022-10-16T08:30:23;100856.09;;;17.93;59.97
41947;BME280;27638;42.184;24.848;2022-10-16T08:33:16;100853.94;;;17.89;58.57
41947;BME280;27638;42.184;24.848;2022-10-16T08:35:42;100856.16;;;17.85;58.79
41947;BME280;27638;42.184;24.848;2022-10-16T08:38:08;100870.72;;;17.60;59.55
41947;BME280;27638;42.184;24.848;2022-10-16T08:40:36;100865.13;;;17.92;58.67
41947;BME280;27638;42.184;24.848;2022-10-16T08:43:33;100852.50;;;18.30;58.01
41947;BME280;27638;42.184;24.848;2022-10-16T08:46:41;100859.22;;;18.56;57.04
41947;BME280;27638;42.184;24.848;2022-10-16T08:49:11;100836.28;;;18.53;55.82
41947;BME280;27638;42.184;24.848;2022-10-16T08:51:38;100860.72;;;18.88;54.75
41947;BME280;27638;42.184;24.848;2022-10-16T08:54:08;100856.81;;;18.61;57.47
41947;BME280;27638;42.184;24.848;2022-10-16T08:56:38;100859.97;;;18.49;57.20
41947;BME280;27638;42.184;24.848;2022-10-16T08:59:06;100858.31;;;18.78;55.99
41947;BME280;27638;42.184;24.848;2022-10-16T09:01:40;100859.69;;;18.89;54.98
41947;BME280;27638;42.184;24.848;2022-10-16T09:07:12;100846.00;;;18.69;54.04
41947;BME280;27638;42.184;24.848;2022-10-16T09:12:21;100836.66;;;18.79;53.20
41947;BME280;27638;42.184;24.848;2022-10-16T09:15:17;100842.00;;;18.94;52.56
41947;BME280;27638;42.184;24.848;2022-10-16T09:20:31;100850.88;;;18.95;52.97
41947;BME280;27638;42.184;24.848;2022-10-16T09:23:12;100850.75;;;19.03;50.80
41947;BME280;27638;42.184;24.848;2022-10-16T09:25:39;100851.22;;;19.06;50.82
41947;BME280;27638;42.184;24.848;2022-10-16T09:28:07;100837.34;;;19.03;49.35
41947;BME280;27638;42.184;24.848;2022-10-16T09:30:33;100830.09;;;18.82;51.52
41947;BME280;27638;42.184;24.848;2022-10-16T09:32:59;100843.66;;;18.95;51.71
41947;BME280;27638;42.184;24.848;2022-10-16T09:35:35;100820.84;;;18.70;50.39
41947;BME280;27638;42.184;24.848;2022-10-16T09:38:30;100840.81;;;18.82;48.24
41947;BME280;27638;42.184;24.848;2022-10-16T09:41:00;100837.16;;;19.04;46.61
41947;BME280;27638;42.184;24.848;2022-10-16T09:43:27;100837.34;;;19.03;46.94
41947;BME280;27638;42.184;24.848;2022-10-16T09:46:47;100831.41;;;19.07;47.79
41947;BME280;27638;42.184;24.848;2022-10-16T09:48:49;100829.00;;;18.76;47.38
41947;BME280;27638;42.184;24.848;2022-10-16T09:51:24;100820.22;;;19.04;46.80
41947;BME280;27638;42.184;24.848;2022-10-16T09:54:01;100827.03;;;18.85;47.27
41947;BME280;27638;42.184;24.848;2022-10-16T09:56:32;100820.38;;;18.81;44.92
41947;BME280;27638;42.184;24.848;2022-10-16T09:59:08;100811.88;;;18.77;45.22
41947;BME280;27638;42.184;24.848;2022-10-16T10:01:38;100804.13;;;18.38;47.25
41947;BME280;27638;42.184;24.848;2022-10-16T10:04:04;100817.44;;;18.46;47.37
41947;BME280;27638;42.184;24.848;2022-10-16T10:06:35;100813.09;;;18.75;46.60
41947;BME280;27638;42.184;24.848;2022-10-16T10:11:54;100810.59;;;18.73;45.97
41947;BME280;27638;42.184;24.848;2022-10-16T10:14:39;100799.88;;;18.44;47.31
41947;BME280;27638;42.184;24.848;2022-10-16T10:17:14;100807.06;;;18.58;47.85
41947;BME280;27638;42.184;24.848;2022-10-16T10:20:15;100797.91;;;18.52;48.50
41947;BME280;27638;42.184;24.848;2022-10-16T10:22:44;100801.50;;;18.60;47.58
41947;BME280;27638;42.184;24.848;2022-10-16T10:30:24;100801.75;;;18.94;45.67
41947;BME280;27638;42.184;24.848;2022-10-16T10:40:51;100785.69;;;18.65;47.58
41947;BME280;27638;42.184;24.848;2022-10-16T10:43:41;100762.00;;;18.68;46.75
41947;BME280;27638;42.184;24.848;2022-10-16T10:52:24;100777.47;;;19.02;45.14
41947;BME280;27638;42.184;24.848;2022-10-16T11:01:07;100772.66;;;18.76;45.41
41947;BME280;27638;42.184;24.848;2022-10-16T11:06:07;100756.75;;;18.96;46.04
41947;BME280;27638;42.184;24.848;2022-10-16T11:08:39;100760.72;;;19.00;45.62
41947;BME280;27638;42.184;24.848;2022-10-16T11:11:14;100754.91;;;18.97;45.69
41947;BME280;27638;42.184;24.848;2022-10-16T11:16:30;100749.84;;;18.87;44.54
41947;BME280;27638;42.184;24.848;2022-10-16T11:21:26;100739.06;;;18.80;45.17
41947;BME280;27638;42.184;24.848;2022-10-16T11:23:59;100750.81;;;18.79;45.79
41947;BME280;27638;42.184;24.848;2022-10-16T11:26:33;100733.28;;;18.47;46.82
41947;BME280;27638;42.184;24.848;2022-10-16T11:29:01;100747.69;;;18.61;47.00
41947;BME280;27638;42.184;24.848;2022-10-16T11:31:41;100708.34;;;18.32;47.27
41947;BME280;27638;42.184;24.848;2022-10-16T11:36:55;100732.06;;;18.65;46.25
41947;BME280;27638;42.184;24.848;2022-10-16T11:39:25;100738.97;;;18.59;47.39
41947;BME280;27638;42.184;24.848;2022-10-16T11:42:03;100734.25;;;18.76;47.24
41947;BME280;27638;42.184;24.848;2022-10-16T11:44:59;100726.59;;;18.73;45.00
41947;BME280;27638;42.184;24.848;2022-10-16T11:47:36;100725.47;;;18.67;44.64
41947;BME280;27638;42.184;24.848;2022-10-16T11:53:03;100740.25;;;18.78;45.97
41947;BME280;27638;42.184;24.848;2022-10-16T11:58:05;100739.19;;;18.94;45.27
41947;BME280;27638;42.184;24.848;2022-10-16T12:00:40;100733.63;;;18.95;44.68
41947;BME280;27638;42.184;24.848;2022-10-16T12:03:35;100729.91;;;18.96;45.64
41947;BME280;27638;42.184;24.848;2022-10-16T12:08:40;100739.81;;;18.96;43.93
41947;BME280;27638;42.184;24.848;2022-10-16T12:11:23;100736.41;;;19.08;43.94
41947;BME280;27638;42.184;24.848;2022-10-16T12:13:49;100702.44;;;18.73;43.96
41947;BME280;27638;42.184;24.848;2022-10-16T12:18:42;100741.22;;;18.92;44.42
41947;BME280;27638;42.184;24.848;2022-10-16T12:21:08;100742.81;;;18.86;44.63
41947;BME280;27638;42.184;24.848;2022-10-16T12:23:50;100734.06;;;18.77;44.68
41947;BME280;27638;42.184;24.848;2022-10-16T12:28:50;100749.34;;;18.98;44.49
41947;BME280;27638;42.184;24.848;2022-10-16T12:31:17;100746.47;;;19.00;44.68
41947;BME280;27638;42.184;24.848;2022-10-16T12:33:59;100738.47;;;19.06;44.03
41947;BME280;27638;42.184;24.848;2022-10-16T12:36:32;100739.09;;;19.08;44.03
41947;BME280;27638;42.184;24.848;2022-10-16T12:38:59;100731.25;;;19.07;44.09
41947;BME280;27638;42.184;24.848;2022-10-16T12:41:35;100746.44;;;19.21;42.95
41947;BME280;27638;42.184;24.848;2022-10-16T12:44:05;100746.06;;;19.24;42.56
41947;BME280;27638;42.184;24.848;2022-10-16T12:49:22;100745.31;;;19.09;42.82
41947;BME280;27638;42.184;24.848;2022-10-16T12:51:54;100745.16;;;19.17;43.35
41947;BME280;27638;42.184;24.848;2022-10-16T12:54:30;100747.22;;;19.15;42.72
41947;BME280;27638;42.184;24.848;2022-10-16T12:57:03;100741.88;;;18.94;44.17
41947;BME280;27638;42.184;24.848;2022-10-16T13:11:05;100751.31;;;19.11;43.17
41947;BME280;27638;42.184;24.848;2022-10-16T13:19:06;100749.97;;;19.00;42.39
41947;BME280;27638;42.184;24.848;2022-10-16T13:28:02;100752.00;;;19.20;41.66
41947;BME280;27638;42.184;24.848;2022-10-16T13:30:26;100750.94;;;19.14;41.57
41947;BME280;27638;42.184;24.848;2022-10-16T13:33:01;100765.44;;;19.20;41.01
41947;BME280;27638;42.184;24.848;2022-10-16T13:35:32;100760.88;;;19.20;40.84
41947;BME280;27638;42.184;24.848;2022-10-16T13:41:00;100755.28;;;19.15;40.76
41947;BME280;27638;42.184;24.848;2022-10-16T13:43:36;100744.00;;;19.26;40.61
41947;BME280;27638;42.184;24.848;2022-10-16T13:46:10;100749.56;;;19.25;40.57
41947;BME280;27638;42.184;24.848;2022-10-16T13:48:37;100754.19;;;19.09;40.99
41947;BME280;27638;42.184;24.848;2022-10-16T13:53:36;100757.50;;;19.11;41.67
41947;BME280;27638;42.184;24.848;2022-10-16T13:56:04;100763.25;;;19.30;41.27
41947;BME280;27638;42.184;24.848;2022-10-16T13:58:30;100756.03;;;19.30;40.73
41947;BME280;27638;42.184;24.848;2022-10-16T14:03:23;100740.13;;;19.07;40.84
41947;BME280;27638;42.184;24.848;2022-10-16T14:05:55;100759.22;;;19.19;40.74
41947;BME280;27638;42.184;24.848;2022-10-16T14:08:22;100750.09;;;19.13;41.48
41947;BME280;27638;42.184;24.848;2022-10-16T14:10:51;100759.78;;;19.36;41.54
41947;BME280;27638;42.184;24.848;2022-10-16T14:13:28;100756.63;;;19.04;40.59
41947;BME280;27638;42.184;24.848;2022-10-16T14:15:54;100757.38;;;18.98;41.22
41947;BME280;27638;42.184;24.848;2022-10-16T14:18:25;100757.84;;;19.02;41.35
41947;BME280;27638;42.184;24.848;2022-10-16T14:20:52;100748.63;;;19.11;41.17
41947;BME280;27638;42.184;24.848;2022-10-16T14:23:23;100745.13;;;19.10;42.14
41947;BME280;27638;42.184;24.848;2022-10-16T14:25:53;100759.56;;;19.09;40.59
41947;BME280;27638;42.184;24.848;2022-10-16T14:28:22;100755.84;;;19.10;41.84
41947;BME280;27638;42.184;24.848;2022-10-16T14:30:56;100764.03;;;19.02;42.31
41947;BME280;27638;42.184;24.848;2022-10-16T14:38:24;100756.81;;;19.03;42.09
41947;BME280;27638;42.184;24.848;2022-10-16T14:40:50;100768.00;;;19.06;42.70
41947;BME280;27638;42.184;24.848;2022-10-16T14:43:34;100771.00;;;19.18;43.37
41947;BME280;27638;42.184;24.848;2022-10-16T14:46:11;100762.31;;;18.95;43.42
41947;BME280;27638;42.184;24.848;2022-10-16T14:48:41;100775.47;;;19.11;43.41
41947;BME280;27638;42.184;24.848;2022-10-16T14:51:13;100766.13;;;19.07;42.92
41947;BME280;27638;42.184;24.848;2022-10-16T14:53:39;100770.50;;;19.08;42.68